createdAt,value
2023-01-19T00:00:32.690Z,2.30
2023-01-19T00:02:59.893Z,2.00
2023-01-19T00:05:27.053Z,2.10
2023-01-19T00:07:54.159Z,1.90
2023-01-19T00:10:21.364Z,1.40
2023-01-19T00:12:48.515Z,1.70
2023-01-19T00:15:15.612Z,1.10
2023-01-19T00:17:42.752Z,1.27
2023-01-19T00:20:10.387Z,1.00
2023-01-19T00:22:37.500Z,1.23
2023-01-19T00:25:04.774Z,0.98
2023-01-19T00:27:34.935Z,1.05
2023-01-19T00:30:02.384Z,1.42
2023-01-19T00:32:29.544Z,1.73
2023-01-19T00:34:56.611Z,2.40
2023-01-19T00:37:24.348Z,1.90
2023-01-19T00:39:51.464Z,2.67
2023-01-19T00:42:37.546Z,2.50
2023-01-19T00:45:05.238Z,2.80
2023-01-19T00:47:33.142Z,3.30
2023-01-19T00:50:00.261Z,3.70
2023-01-19T00:52:27.415Z,4.40
2023-01-19T00:54:54.498Z,3.75
2023-01-19T00:57:21.628Z,3.90
2023-01-19T00:59:48.767Z,3.92
2023-01-19T01:02:16.056Z,4.80
2023-01-19T01:04:43.320Z,5.28
2023-01-19T01:07:10.535Z,5.10
2023-01-19T01:09:37.621Z,4.75
2023-01-19T01:12:06.050Z,5.15
2023-01-19T01:14:33.305Z,5.30
2023-01-19T01:17:00.671Z,4.63
2023-01-19T01:19:27.957Z,5.20
2023-01-19T01:21:55.623Z,6.53
2023-01-19T01:24:22.818Z,6.00
2023-01-19T01:26:49.981Z,6.07
2023-01-19T01:29:17.217Z,5.30
2023-01-19T01:31:44.389Z,6.88
2023-01-19T01:34:11.694Z,6.47
2023-01-19T01:36:38.875Z,5.95
2023-01-19T01:39:06.103Z,6.70
2023-01-19T01:41:33.754Z,6.53
2023-01-19T01:44:02.991Z,6.75
2023-01-19T01:46:31.326Z,7.78
2023-01-19T01:49:14.189Z,7.32
2023-01-19T01:51:41.251Z,7.80
2023-01-19T01:54:16.712Z,7.38
2023-01-19T01:56:45.339Z,7.45
2023-01-19T01:59:25.938Z,7.57
2023-01-19T02:02:16.333Z,7.18
2023-01-19T02:04:46.947Z,7.85
2023-01-19T02:07:36.820Z,7.63
2023-01-19T02:10:23.000Z,6.93
2023-01-19T02:13:09.056Z,6.80
2023-01-19T02:15:36.196Z,7.18
2023-01-19T02:18:03.361Z,6.38
2023-01-19T02:20:31.631Z,6.85
2023-01-19T02:23:01.635Z,6.88
2023-01-19T02:25:28.914Z,6.97
2023-01-19T02:27:56.595Z,6.55
2023-01-19T02:30:24.146Z,6.22
2023-01-19T02:32:52.233Z,7.07
2023-01-19T02:35:19.587Z,7.38
2023-01-19T02:37:47.076Z,7.57
2023-01-19T02:40:16.067Z,7.28
2023-01-19T02:42:45.365Z,6.88
2023-01-19T02:45:14.474Z,8.93
2023-01-19T02:47:43.975Z,8.45
2023-01-19T02:50:31.647Z,8.23
2023-01-19T02:53:05.413Z,8.05
2023-01-19T02:55:33.167Z,8.55
2023-01-19T02:58:06.538Z,7.97
2023-01-19T03:00:40.804Z,9.13
2023-01-19T03:03:11.125Z,7.57
2023-01-19T03:05:44.386Z,7.32
2023-01-19T03:08:30.164Z,7.22
2023-01-19T03:10:57.880Z,8.15
2023-01-19T03:13:39.429Z,6.90
2023-01-19T03:16:10.042Z,7.30
2023-01-19T03:18:37.952Z,7.22
2023-01-19T03:21:06.930Z,7.53
2023-01-19T03:23:35.478Z,7.43
2023-01-19T03:26:03.534Z,6.72
2023-01-19T03:28:30.984Z,7.07
2023-01-19T03:31:04.131Z,6.63
2023-01-19T03:33:33.364Z,6.57
2023-01-19T03:36:05.439Z,6.88
2023-01-19T03:41:00.999Z,5.80
2023-01-19T03:43:29.147Z,5.50
2023-01-19T03:45:56.956Z,5.10
2023-01-19T03:48:24.491Z,5.68
2023-01-19T03:50:52.581Z,4.32
2023-01-19T03:53:22.587Z,3.72
2023-01-19T03:55:51.585Z,3.70
2023-01-19T03:58:18.823Z,4.40
2023-01-19T04:00:45.929Z,4.28
2023-01-19T04:03:18.056Z,4.20
2023-01-19T04:05:45.302Z,4.47
2023-01-19T04:08:12.465Z,4.72
2023-01-19T04:10:39.693Z,5.00
2023-01-19T04:13:06.815Z,4.57
2023-01-19T04:15:34.082Z,4.22
2023-01-19T04:18:01.494Z,4.13
2023-01-19T04:20:29.151Z,4.15
2023-01-19T04:23:00.061Z,4.03
2023-01-19T04:25:27.768Z,3.85
2023-01-19T04:27:55.275Z,3.92
2023-01-19T04:30:22.672Z,4.05
2023-01-19T04:32:49.861Z,3.75
2023-01-19T04:35:17.220Z,3.65
2023-01-19T04:37:45.064Z,3.67
2023-01-19T04:40:12.764Z,3.05
2023-01-19T04:42:39.950Z,3.90
2023-01-19T04:45:07.394Z,2.67
2023-01-19T04:47:34.566Z,3.20
2023-01-19T04:50:01.720Z,3.35
2023-01-19T04:52:35.125Z,2.45
2023-01-19T04:55:06.753Z,1.70
2023-01-19T04:57:33.907Z,1.42
2023-01-19T05:00:01.151Z,0.88
2023-01-19T05:02:28.326Z,1.17
2023-01-19T05:04:55.436Z,0.88
2023-01-19T05:07:22.541Z,0.95
2023-01-19T05:09:49.683Z,0.88
2023-01-19T05:12:16.968Z,1.10
2023-01-19T05:14:44.110Z,1.17
2023-01-19T05:17:11.251Z,1.13
2023-01-19T05:19:38.413Z,0.50
2023-01-19T05:22:06.182Z,1.00
2023-01-19T05:24:33.336Z,0.80
2023-01-19T05:27:00.466Z,0.30
2023-01-19T05:29:27.660Z,0.80
2023-01-19T05:31:54.742Z,0.40
2023-01-19T05:34:21.869Z,0.30
2023-01-19T05:36:48.996Z,0.45
2023-01-19T05:39:16.205Z,0.30
2023-01-19T05:41:45.443Z,0.38
2023-01-19T05:44:12.985Z,0.22
2023-01-19T05:46:40.837Z,0.85
2023-01-19T05:49:08.279Z,0.30
2023-01-19T05:51:38.187Z,0.30
2023-01-19T05:54:08.903Z,0.40
2023-01-19T05:56:36.368Z,0.43
2023-01-19T05:59:03.540Z,0.32
2023-01-19T06:01:30.611Z,0.30
2023-01-19T06:03:57.759Z,0.68
2023-01-19T06:06:24.863Z,0.35
2023-01-19T06:08:52.083Z,0.65
2023-01-19T06:11:19.571Z,0.38
2023-01-19T06:13:47.498Z,0.50
2023-01-19T06:16:14.651Z,0.30
2023-01-19T06:18:41.943Z,0.30
2023-01-19T06:21:09.498Z,0.20
2023-01-19T06:23:37.032Z,0.50
2023-01-19T06:26:04.873Z,0.35
2023-01-19T06:28:32.199Z,0.30
2023-01-19T06:30:59.367Z,0.20
2023-01-19T06:33:28.018Z,0.70
2023-01-19T06:35:55.822Z,0.88
2023-01-19T06:38:23.116Z,0.70
2023-01-19T06:40:54.612Z,0.93
2023-01-19T06:43:22.290Z,0.70
2023-01-19T06:45:50.237Z,0.68
2023-01-19T06:48:17.428Z,1.20
2023-01-19T06:50:47.405Z,0.85
2023-01-19T06:53:16.543Z,0.88
2023-01-19T06:55:44.752Z,0.63
2023-01-19T06:58:12.440Z,0.98
2023-01-19T07:00:39.582Z,0.90
2023-01-19T07:03:10.302Z,1.05
2023-01-19T07:05:37.465Z,1.38
2023-01-19T07:08:04.991Z,0.77
2023-01-19T07:11:21.605Z,0.63
2023-01-19T07:13:19.459Z,1.73
2023-01-19T07:15:46.657Z,0.98
2023-01-19T07:18:13.803Z,1.20
2023-01-19T07:20:40.930Z,0.88
2023-01-19T07:23:08.033Z,0.85
2023-01-19T07:25:35.135Z,1.20
2023-01-19T07:28:02.244Z,1.05
2023-01-19T07:30:29.597Z,0.60
2023-01-19T07:32:58.353Z,2.42
2023-01-19T07:35:26.252Z,2.17
2023-01-19T07:37:53.431Z,2.58
2023-01-19T07:40:22.177Z,2.17
2023-01-19T07:42:52.128Z,1.65
2023-01-19T07:45:20.706Z,1.00
2023-01-19T07:47:48.939Z,1.23
2023-01-19T07:50:16.942Z,2.40
2023-01-19T07:52:44.745Z,1.48
2023-01-19T07:55:11.968Z,1.23
2023-01-19T07:57:39.046Z,1.73
2023-01-19T08:00:06.414Z,1.17
2023-01-19T08:02:35.954Z,1.23
2023-01-19T08:05:03.140Z,0.90
2023-01-19T08:07:30.372Z,0.93
2023-01-19T08:09:57.457Z,1.42
2023-01-19T08:12:24.506Z,1.77
2023-01-19T08:14:51.626Z,4.70
2023-01-19T08:17:19.382Z,1.08
2023-01-19T08:19:46.485Z,1.00
2023-01-19T08:22:13.599Z,0.80
2023-01-19T08:24:40.794Z,1.17
2023-01-19T08:27:09.853Z,0.98
2023-01-19T08:29:36.993Z,0.90
2023-01-19T08:32:04.828Z,1.02
2023-01-19T08:34:32.036Z,1.10
2023-01-19T08:36:59.556Z,1.30
2023-01-19T08:39:27.384Z,1.50
2023-01-19T08:41:54.599Z,0.90
2023-01-19T08:44:21.876Z,0.90
2023-01-19T08:46:49.176Z,1.33
2023-01-19T08:49:16.539Z,1.33
2023-01-19T08:51:46.906Z,2.05
2023-01-19T08:54:17.076Z,1.83
2023-01-19T08:56:45.432Z,1.20
2023-01-19T08:59:14.066Z,1.45
2023-01-19T09:01:41.527Z,1.45
2023-01-19T09:04:08.842Z,1.52
2023-01-19T09:06:35.979Z,0.98
2023-01-19T09:09:03.180Z,1.10
2023-01-19T09:11:30.910Z,1.20
2023-01-19T09:13:58.181Z,1.23
2023-01-19T09:16:27.081Z,1.05
2023-01-19T09:18:54.361Z,1.10
2023-01-19T09:21:21.487Z,1.38
2023-01-19T09:23:49.397Z,1.35
2023-01-19T09:26:16.717Z,0.77
2023-01-19T09:28:44.125Z,1.10
2023-01-19T09:31:11.420Z,0.60
2023-01-19T09:33:38.692Z,1.85
2023-01-19T09:36:05.964Z,1.38
2023-01-19T09:38:33.950Z,0.82
2023-01-19T09:41:01.623Z,1.17
2023-01-19T09:43:34.531Z,0.80
2023-01-19T09:46:02.743Z,0.40
2023-01-19T09:48:30.032Z,0.70
2023-01-19T09:50:58.815Z,0.60
2023-01-19T09:53:42.997Z,0.55
2023-01-19T09:56:11.955Z,1.23
2023-01-19T09:58:39.019Z,0.70
2023-01-19T10:01:13.574Z,0.60
2023-01-19T10:03:42.120Z,1.00
2023-01-19T10:06:12.449Z,0.93
2023-01-19T10:08:42.802Z,1.10
2023-01-19T10:11:38.086Z,0.80
2023-01-19T10:14:18.928Z,0.82
2023-01-19T10:16:56.820Z,1.25
2023-01-19T10:19:27.054Z,0.82
2023-01-19T10:21:55.970Z,0.80
2023-01-19T10:24:31.117Z,0.90
2023-01-19T10:26:58.217Z,1.10
2023-01-19T10:29:38.508Z,0.77
2023-01-19T10:32:08.852Z,0.60
2023-01-19T10:34:36.731Z,0.85
2023-01-19T10:37:06.513Z,0.80
2023-01-19T10:39:37.911Z,0.50
2023-01-19T10:42:06.562Z,0.93
2023-01-19T10:44:37.685Z,0.80
2023-01-19T10:47:06.255Z,0.90
2023-01-19T10:49:40.513Z,0.75
2023-01-19T10:52:08.341Z,0.90
2023-01-19T10:54:37.317Z,0.70
2023-01-19T10:57:05.915Z,1.52
2023-01-19T10:59:38.101Z,0.65
2023-01-19T11:02:15.786Z,1.00
2023-01-19T11:04:44.905Z,0.80
2023-01-19T11:07:14.880Z,0.80
2023-01-19T11:09:42.078Z,1.08
2023-01-19T11:12:16.771Z,0.95
2023-01-19T11:14:43.997Z,0.80
2023-01-19T11:17:18.945Z,0.80
2023-01-19T11:19:53.112Z,0.90
2023-01-19T11:22:24.869Z,0.43
2023-01-19T11:24:52.110Z,0.98
2023-01-19T11:27:20.874Z,0.57
2023-01-19T11:29:50.373Z,1.50
2023-01-19T11:32:22.716Z,0.70
2023-01-19T11:34:50.474Z,0.38
2023-01-19T11:37:18.113Z,0.60
2023-01-19T11:39:52.628Z,1.08
2023-01-19T11:42:21.578Z,1.00
2023-01-19T11:44:51.525Z,0.55
2023-01-19T11:47:28.291Z,0.50
2023-01-19T11:50:01.406Z,0.50
2023-01-19T11:52:30.918Z,0.70
2023-01-19T11:55:14.670Z,1.15
2023-01-19T11:57:49.256Z,0.80
2023-01-19T12:00:36.062Z,0.70
2023-01-19T12:03:23.526Z,0.38
2023-01-19T12:05:54.911Z,0.50
2023-01-19T12:08:26.896Z,0.38
2023-01-19T12:10:56.324Z,0.50
2023-01-19T12:13:24.796Z,1.65
2023-01-19T12:16:04.533Z,0.70
2023-01-19T12:18:36.297Z,1.15
2023-01-19T12:21:04.357Z,0.98
2023-01-19T12:23:31.628Z,0.88
2023-01-19T12:26:04.786Z,0.90
2023-01-19T12:28:38.179Z,1.00
2023-01-19T12:31:05.704Z,0.80
2023-01-19T12:33:34.479Z,1.63
2023-01-19T12:36:04.119Z,0.70
2023-01-19T12:38:36.776Z,0.50
2023-01-19T12:41:20.582Z,0.73
2023-01-19T12:43:48.421Z,0.93
2023-01-19T12:46:27.343Z,0.38
2023-01-19T12:48:54.783Z,0.47
2023-01-19T12:51:25.853Z,0.80
2023-01-19T12:53:57.830Z,0.77
2023-01-19T12:56:30.912Z,0.82
2023-01-19T12:58:58.208Z,0.70
2023-01-19T13:01:26.977Z,0.50
2023-01-19T13:04:12.908Z,0.63
2023-01-19T13:06:49.077Z,0.32
2023-01-19T13:09:39.250Z,0.98
2023-01-19T13:12:15.567Z,0.32
2023-01-19T13:14:43.706Z,0.50
2023-01-19T13:17:34.182Z,0.57
2023-01-19T13:20:04.342Z,0.40
2023-01-19T13:22:47.151Z,0.60
2023-01-19T13:25:22.221Z,0.63
2023-01-19T13:27:49.976Z,0.60
2023-01-19T13:30:27.202Z,0.55
2023-01-19T13:32:58.780Z,0.40
2023-01-19T13:35:26.226Z,1.75
2023-01-19T13:37:53.521Z,2.13
2023-01-19T13:40:24.936Z,1.50
2023-01-19T13:42:53.458Z,0.68
2023-01-19T13:45:27.126Z,0.90
2023-01-19T13:47:55.542Z,0.95
2023-01-19T13:50:24.131Z,1.27
2023-01-19T13:52:53.879Z,1.00
2023-01-19T13:55:21.361Z,0.35
2023-01-19T13:57:49.534Z,0.47
2023-01-19T14:00:22.506Z,0.57
2023-01-19T14:02:52.917Z,0.50
2023-01-19T14:05:20.168Z,0.50
2023-01-19T14:07:47.557Z,0.82
2023-01-19T14:10:16.540Z,0.80
2023-01-19T14:12:58.527Z,0.25
2023-01-19T14:15:26.387Z,0.60
2023-01-19T14:18:09.738Z,0.50
2023-01-19T14:20:37.231Z,0.38
2023-01-19T14:23:05.280Z,0.70
2023-01-19T14:25:33.952Z,0.80
2023-01-19T14:28:19.823Z,0.60
2023-01-19T14:31:00.953Z,0.47
2023-01-19T14:33:41.158Z,0.60
2023-01-19T14:36:16.768Z,0.40
2023-01-19T14:38:45.589Z,0.55
2023-01-19T14:41:12.967Z,0.63
2023-01-19T14:43:44.634Z,0.52
2023-01-19T14:46:21.315Z,0.77
2023-01-19T14:48:49.115Z,0.60
2023-01-19T14:51:19.188Z,1.30
2023-01-19T14:53:48.382Z,1.30
2023-01-19T14:56:25.113Z,1.30
2023-01-19T14:58:52.236Z,1.30
2023-01-19T15:01:19.485Z,0.93
2023-01-19T15:03:46.574Z,1.20
2023-01-19T15:06:18.062Z,0.90
2023-01-19T15:08:45.759Z,0.80
2023-01-19T15:11:16.287Z,1.55
2023-01-19T15:13:44.612Z,0.90
2023-01-19T15:16:11.853Z,1.17
2023-01-19T15:18:39.077Z,0.98
2023-01-19T15:21:06.336Z,0.93
2023-01-19T15:23:33.741Z,0.90
2023-01-19T15:26:05.162Z,1.00
2023-01-19T15:28:32.530Z,0.90
2023-01-19T15:31:00.490Z,0.98
2023-01-19T15:33:30.600Z,1.45
2023-01-19T15:35:57.861Z,1.83
2023-01-19T15:38:26.601Z,1.20
2023-01-19T15:40:53.854Z,1.20
2023-01-19T15:43:21.454Z,1.63
2023-01-19T15:45:53.869Z,1.50
2023-01-19T15:48:22.459Z,1.63
2023-01-19T15:50:49.613Z,1.98
2023-01-19T15:53:18.412Z,1.60
2023-01-19T15:55:49.635Z,1.60
2023-01-19T15:58:16.813Z,1.27
2023-01-19T16:00:44.054Z,1.10
2023-01-19T16:03:11.838Z,1.33
2023-01-19T16:05:43.370Z,0.93
2023-01-19T16:08:11.705Z,1.15
2023-01-19T16:10:39.143Z,0.77
2023-01-19T16:13:06.298Z,1.02
2023-01-19T16:15:35.181Z,1.42
2023-01-19T16:18:02.628Z,1.50
2023-01-19T16:20:29.738Z,1.77
2023-01-19T16:23:09.635Z,1.85
2023-01-19T16:25:41.211Z,1.73
2023-01-19T16:28:08.381Z,1.85
2023-01-19T16:30:35.628Z,2.22
2023-01-19T16:33:02.883Z,2.00
2023-01-19T16:35:30.065Z,1.48
2023-01-19T16:37:57.213Z,1.10
2023-01-19T16:40:24.269Z,1.70
2023-01-19T16:42:51.385Z,1.05
2023-01-19T16:45:18.497Z,0.68
2023-01-19T16:47:50.456Z,1.25
2023-01-19T16:50:17.588Z,2.20
2023-01-19T16:52:44.830Z,1.67
2023-01-19T16:55:11.901Z,2.45
2023-01-19T16:57:39.144Z,1.60
2023-01-19T17:00:07.372Z,1.55
2023-01-19T17:02:34.641Z,2.10
2023-01-19T17:05:01.953Z,2.83
2023-01-19T17:07:29.275Z,2.25
2023-01-19T17:09:56.397Z,1.85
2023-01-19T17:12:23.689Z,1.30
2023-01-19T17:14:50.970Z,1.23
2023-01-19T17:17:18.096Z,1.58
2023-01-19T17:19:45.216Z,1.13
2023-01-19T17:22:13.619Z,1.27
2023-01-19T17:24:42.487Z,1.08
2023-01-19T17:27:10.972Z,1.23
2023-01-19T17:29:38.226Z,1.40
2023-01-19T17:32:05.563Z,1.95
2023-01-19T17:34:33.593Z,1.77
2023-01-19T17:37:03.182Z,1.65
2023-01-19T17:39:30.482Z,2.40
2023-01-19T17:41:57.767Z,2.28
2023-01-19T17:44:24.927Z,2.85
2023-01-19T17:46:52.093Z,3.88
2023-01-19T17:49:19.272Z,2.83
2023-01-19T17:51:49.725Z,4.43
2023-01-19T17:54:17.020Z,4.18
2023-01-19T17:56:44.308Z,3.35
2023-01-19T17:59:11.467Z,2.70
2023-01-19T18:01:40.345Z,2.50
2023-01-19T18:04:08.106Z,2.60
2023-01-19T18:06:35.266Z,2.75
2023-01-19T18:09:02.435Z,2.65
2023-01-19T18:11:29.598Z,3.30
2023-01-19T18:13:57.123Z,3.10
2023-01-19T18:16:25.271Z,3.38
2023-01-19T18:18:53.754Z,4.03
2023-01-19T18:21:22.528Z,2.65
2023-01-19T18:23:50.837Z,1.83
2023-01-19T18:26:22.672Z,1.92
2023-01-19T18:28:50.329Z,1.63
2023-01-19T18:31:18.996Z,0.77
2023-01-19T18:33:46.235Z,0.30
2023-01-19T18:36:13.593Z,0.77
2023-01-19T18:38:41.155Z,0.43
2023-01-19T18:41:10.879Z,0.63
2023-01-19T18:43:38.471Z,0.50
2023-01-19T18:46:07.219Z,0.45
2023-01-19T18:48:34.454Z,0.73
2023-01-19T18:51:05.590Z,0.70
2023-01-19T18:53:32.989Z,0.77
2023-01-19T18:56:02.001Z,0.70
2023-01-19T18:58:29.996Z,0.60
2023-01-19T19:00:57.637Z,0.30
2023-01-19T19:03:24.869Z,0.50
2023-01-19T19:05:52.136Z,0.80
2023-01-19T19:08:19.491Z,0.80
2023-01-19T19:10:46.613Z,12.38
2023-01-19T19:13:14.199Z,5.05
2023-01-19T19:15:41.633Z,2.95
2023-01-19T19:18:09.025Z,1.70
2023-01-19T19:20:38.706Z,0.90
2023-01-19T19:23:06.025Z,1.42
2023-01-19T19:25:33.508Z,0.65
2023-01-19T19:28:00.647Z,1.02
2023-01-19T19:30:28.252Z,0.95
2023-01-19T19:32:59.851Z,0.98
2023-01-19T19:35:27.003Z,1.40
2023-01-19T19:37:57.492Z,1.30
2023-01-19T19:40:26.008Z,1.52
2023-01-19T19:42:53.178Z,3.17
2023-01-19T19:45:20.521Z,5.53
2023-01-19T19:47:47.789Z,3.65
2023-01-19T19:50:17.060Z,1.80
2023-01-19T19:52:44.152Z,1.67
2023-01-19T19:55:12.643Z,1.00
2023-01-19T19:57:39.897Z,1.35
2023-01-19T20:00:07.322Z,1.30
2023-01-19T20:02:34.537Z,0.93
2023-01-19T20:05:01.724Z,1.50
2023-01-19T20:07:28.939Z,1.95
2023-01-19T20:09:56.147Z,1.20
2023-01-19T20:12:23.335Z,1.25
2023-01-19T20:14:50.521Z,1.88
2023-01-19T20:17:18.022Z,2.40
2023-01-19T20:19:47.529Z,1.90
2023-01-19T20:22:14.667Z,1.70
2023-01-19T20:24:41.768Z,1.40
2023-01-19T20:27:08.841Z,1.10
2023-01-19T20:29:35.984Z,1.40
2023-01-19T20:32:03.162Z,1.83
2023-01-19T20:34:33.359Z,1.33
2023-01-19T20:37:01.647Z,1.55
2023-01-19T20:39:30.236Z,2.30
2023-01-19T20:41:57.372Z,1.88
2023-01-19T20:44:26.078Z,1.80
2023-01-19T20:46:53.847Z,2.13
2023-01-19T20:49:21.094Z,1.90
2023-01-19T20:51:48.674Z,1.95
2023-01-19T20:54:17.359Z,2.00
2023-01-19T20:56:44.618Z,1.60
2023-01-19T20:59:11.862Z,2.08
2023-01-19T21:01:39.678Z,1.63
2023-01-19T21:04:06.962Z,2.60
2023-01-19T21:06:34.164Z,2.30
2023-01-19T21:09:01.374Z,2.13
2023-01-19T21:11:28.595Z,2.58
2023-01-19T21:13:56.492Z,1.80
2023-01-19T21:16:24.396Z,2.15
2023-01-19T21:18:51.663Z,2.42
2023-01-19T21:21:29.759Z,1.77
2023-01-19T21:23:57.900Z,2.75
2023-01-19T21:26:25.062Z,1.90
2023-01-19T21:28:52.177Z,1.85
2023-01-19T21:31:21.012Z,1.85
2023-01-19T21:33:49.255Z,1.52
2023-01-19T21:36:16.409Z,2.88
2023-01-19T21:38:43.673Z,1.30
2023-01-19T21:41:12.652Z,1.55
2023-01-19T21:43:41.849Z,1.95
2023-01-19T21:46:19.644Z,1.60
2023-01-19T21:48:46.952Z,1.52
2023-01-19T21:51:14.819Z,1.30
2023-01-19T21:53:42.063Z,1.20
2023-01-19T21:56:10.025Z,1.33
2023-01-19T21:58:37.415Z,1.75
2023-01-19T22:01:06.505Z,1.45
2023-01-19T22:03:33.896Z,1.30
2023-01-19T22:06:05.198Z,1.45
2023-01-19T22:08:32.539Z,1.80
2023-01-19T22:11:06.779Z,1.50
2023-01-19T22:13:34.259Z,1.63
2023-01-19T22:16:02.127Z,1.58
2023-01-19T22:18:29.287Z,1.70
2023-01-19T22:20:56.614Z,1.67
2023-01-19T22:23:23.720Z,1.50
2023-01-19T22:25:50.852Z,1.75
2023-01-19T22:28:18.084Z,1.85
2023-01-19T22:30:45.528Z,1.30
2023-01-19T22:33:12.744Z,1.40
2023-01-19T22:35:39.914Z,1.65
2023-01-19T22:38:06.988Z,1.80
2023-01-19T22:40:34.096Z,1.58
2023-01-19T22:43:01.228Z,1.50
2023-01-19T22:45:28.309Z,1.92
2023-01-19T22:47:55.411Z,1.85
2023-01-19T22:50:22.574Z,1.83
2023-01-19T22:52:49.653Z,1.60
2023-01-19T22:55:16.799Z,2.05
2023-01-19T22:57:43.870Z,2.10
2023-01-19T23:00:11.349Z,2.10
2023-01-19T23:02:38.482Z,2.00
2023-01-19T23:05:05.766Z,2.13
2023-01-19T23:07:32.910Z,1.67
2023-01-19T23:10:00.054Z,1.92
2023-01-19T23:12:27.298Z,1.77
2023-01-19T23:14:54.460Z,1.55
2023-01-19T23:17:21.608Z,1.95
2023-01-19T23:19:48.675Z,2.38
2023-01-19T23:22:15.772Z,2.05
2023-01-19T23:24:42.898Z,2.08
2023-01-19T23:27:11.778Z,1.90
2023-01-19T23:29:38.948Z,2.10
2023-01-19T23:32:06.149Z,1.65
2023-01-19T23:34:33.205Z,1.98
2023-01-19T23:37:00.409Z,2.28
2023-01-19T23:39:27.756Z,2.85
2023-01-19T23:41:54.838Z,1.92
2023-01-19T23:44:22.052Z,2.05
2023-01-19T23:46:49.227Z,1.85
2023-01-19T23:49:17.096Z,2.35
2023-01-19T23:51:44.366Z,2.25
2023-01-19T23:54:12.370Z,2.20
2023-01-19T23:56:39.648Z,2.38
2023-01-19T23:59:08.289Z,2.50
